N2534Y KISM-KLAL
Flight info
| Callsign | N2534Y |
|---|---|
| Flight time | 0h 52m |
| Altitude | 4500 |
| Route | VFR |
| Aircraft | C172/L-FAA/L |
Departure
| Time | 2026-04-21 23:31 |
|---|---|
| Airport | Kissimmee Gateway Airport (KISM) |
Arrival
| Time | 2026-04-22 00:23 |
|---|---|
| Airport | Lakeland Linder International Airport (KLAL) |
| Time | Latitude | Longitude | Altitude | Speed | Heading |
|---|---|---|---|---|---|
| 2026-04-21 23:23 | 28.29189 | -81.44052 | 83 ft | 0 kts | 43° |
| 2026-04-21 23:26 | 28.29191 | -81.44051 | 83 ft | 1 kts | 1° |
| 2026-04-21 23:26 | 28.29192 | -81.44051 | 83 ft | 1 kts | 354° |
| 2026-04-21 23:26 | 28.29249 | -81.44109 | 84 ft | 15 kts | 322° |
| 2026-04-21 23:27 | 28.29335 | -81.44174 | 84 ft | 16 kts | 330° |
| 2026-04-21 23:27 | 28.29420 | -81.44220 | 85 ft | 10 kts | 20° |
| 2026-04-21 23:27 | 28.29498 | -81.44227 | 84 ft | 14 kts | 329° |
| 2026-04-21 23:27 | 28.29552 | -81.44271 | 85 ft | 7 kts | 172° |
| 2026-04-21 23:28 | 28.29550 | -81.44270 | 85 ft | 0 kts | 152° |
| 2026-04-21 23:29 | 28.29556 | -81.44259 | 88 ft | 6 kts | 25° |
| 2026-04-21 23:29 | 28.29605 | -81.44190 | 84 ft | 14 kts | 62° |
| 2026-04-21 23:30 | 28.29596 | -81.44149 | 83 ft | 0 kts | 147° |
| 2026-04-21 23:30 | 28.29595 | -81.44149 | 83 ft | 3 kts | 147° |
| 2026-04-21 23:30 | 28.29405 | -81.44014 | 83 ft | 58 kts | 140° |
| 2026-04-21 23:30 | 28.28983 | -81.43755 | 243 ft | 72 kts | 151° |
| 2026-04-21 23:31 | 28.28547 | -81.43537 | 504 ft | 67 kts | 152° |
| 2026-04-21 23:31 | 28.28078 | -81.43322 | 663 ft | 75 kts | 160° |
| 2026-04-21 23:31 | 28.27568 | -81.43160 | 976 ft | 72 kts | 154° |
| 2026-04-21 23:31 | 28.27005 | -81.43139 | 1179 ft | 96 kts | 191° |
| 2026-04-21 23:32 | 28.26507 | -81.43728 | 1453 ft | 113 kts | 238° |
| 2026-04-21 23:32 | 28.26155 | -81.44565 | 1622 ft | 120 kts | 243° |
| 2026-04-21 23:32 | 28.25871 | -81.45477 | 1787 ft | 127 kts | 244° |
| 2026-04-21 23:32 | 28.25448 | -81.46361 | 2040 ft | 130 kts | 238° |
| 2026-04-21 23:33 | 28.24989 | -81.47306 | 2017 ft | 138 kts | 239° |
| 2026-04-21 23:33 | 28.24556 | -81.48218 | 2003 ft | 121 kts | 239° |
| 2026-04-21 23:33 | 28.24150 | -81.49035 | 2016 ft | 125 kts | 238° |
| 2026-04-21 23:33 | 28.23737 | -81.49904 | 2017 ft | 120 kts | 238° |
| 2026-04-21 23:34 | 28.23295 | -81.50787 | 2019 ft | 138 kts | 239° |
| 2026-04-21 23:34 | 28.22848 | -81.51741 | 2002 ft | 130 kts | 237° |
| 2026-04-21 23:34 | 28.22465 | -81.52619 | 1994 ft | 120 kts | 237° |
| 2026-04-21 23:34 | 28.22218 | -81.53192 | 2006 ft | 126 kts | 238° |
| 2026-04-21 23:35 | 28.22057 | -81.53547 | 2007 ft | 123 kts | 236° |
| 2026-04-21 23:35 | 28.21668 | -81.54396 | 1999 ft | 120 kts | 237° |
| 2026-04-21 23:35 | 28.21269 | -81.55274 | 2009 ft | 134 kts | 236° |
| 2026-04-21 23:35 | 28.20850 | -81.56212 | 1994 ft | 131 kts | 237° |
| 2026-04-21 23:36 | 28.20444 | -81.57101 | 2000 ft | 126 kts | 238° |
| 2026-04-21 23:36 | 28.20040 | -81.57969 | 2012 ft | 125 kts | 236° |
| 2026-04-21 23:36 | 28.19639 | -81.58852 | 2006 ft | 127 kts | 237° |
| 2026-04-21 23:36 | 28.19230 | -81.59739 | 1979 ft | 126 kts | 238° |
| 2026-04-21 23:37 | 28.18837 | -81.60559 | 1954 ft | 115 kts | 236° |
| 2026-04-21 23:37 | 28.18466 | -81.61357 | 1966 ft | 113 kts | 237° |
| 2026-04-21 23:37 | 28.18089 | -81.62169 | 1810 ft | 117 kts | 237° |
| 2026-04-21 23:37 | 28.17699 | -81.62971 | 1612 ft | 116 kts | 237° |
| 2026-04-21 23:38 | 28.17297 | -81.63777 | 1422 ft | 119 kts | 236° |
| 2026-04-21 23:38 | 28.16892 | -81.64600 | 1214 ft | 118 kts | 237° |
| 2026-04-21 23:38 | 28.16518 | -81.65402 | 1025 ft | 114 kts | 236° |
| 2026-04-21 23:38 | 28.16154 | -81.66178 | 812 ft | 110 kts | 239° |
| 2026-04-21 23:39 | 28.15777 | -81.66826 | 870 ft | 87 kts | 235° |
| 2026-04-21 23:39 | 28.15557 | -81.67337 | 1058 ft | 68 kts | 230° |
| 2026-04-21 23:39 | 28.15284 | -81.67906 | 1139 ft | 97 kts | 240° |
| 2026-04-21 23:39 | 28.15011 | -81.68658 | 1168 ft | 108 kts | 242° |
| 2026-04-21 23:40 | 28.14720 | -81.69467 | 1178 ft | 116 kts | 244° |
| 2026-04-21 23:40 | 28.14356 | -81.70356 | 1171 ft | 132 kts | 242° |
| 2026-04-21 23:40 | 28.14138 | -81.71371 | 1163 ft | 133 kts | 271° |
| 2026-04-21 23:40 | 28.14313 | -81.72394 | 1169 ft | 131 kts | 288° |
| 2026-04-21 23:41 | 28.14556 | -81.73350 | 1162 ft | 127 kts | 290° |
| 2026-04-21 23:41 | 28.14819 | -81.74306 | 1162 ft | 125 kts | 291° |
| 2026-04-21 23:41 | 28.15083 | -81.75243 | 1160 ft | 124 kts | 290° |
| 2026-04-21 23:41 | 28.15355 | -81.76166 | 1151 ft | 124 kts | 290° |
| 2026-04-21 23:42 | 28.15617 | -81.77045 | 1151 ft | 112 kts | 291° |
| 2026-04-21 23:42 | 28.15819 | -81.77911 | 1159 ft | 118 kts | 287° |
| 2026-04-21 23:42 | 28.15960 | -81.78512 | 1168 ft | 120 kts | 288° |
| 2026-04-21 23:42 | 28.16436 | -81.79663 | 1161 ft | 126 kts | 316° |
| 2026-04-21 23:43 | 28.17017 | -81.80431 | 1166 ft | 132 kts | 314° |
| 2026-04-21 23:43 | 28.16797 | -81.81204 | 1226 ft | 121 kts | 194° |
| 2026-04-21 23:43 | 28.16059 | -81.81563 | 1254 ft | 110 kts | 198° |
| 2026-04-21 23:43 | 28.15390 | -81.81928 | 1291 ft | 103 kts | 199° |
| 2026-04-21 23:44 | 28.14986 | -81.82161 | 1327 ft | 98 kts | 199° |
| 2026-04-21 23:44 | 28.14352 | -81.82534 | 1366 ft | 108 kts | 199° |
| 2026-04-21 23:44 | 28.13671 | -81.82954 | 1419 ft | 114 kts | 199° |
| 2026-04-21 23:44 | 28.12971 | -81.83384 | 1476 ft | 113 kts | 201° |
| 2026-04-21 23:45 | 28.12280 | -81.83782 | 1538 ft | 112 kts | 198° |
| 2026-04-21 23:45 | 28.11033 | -81.85001 | 1638 ft | 122 kts | 226° |
| 2026-04-21 23:45 | 28.10634 | -81.85843 | 1675 ft | 120 kts | 244° |
| 2026-04-21 23:46 | 28.10323 | -81.86755 | 1423 ft | 124 kts | 247° |
| 2026-04-21 23:46 | 28.10049 | -81.87652 | 1236 ft | 118 kts | 247° |
| 2026-04-21 23:46 | 28.09759 | -81.88542 | 1279 ft | 122 kts | 243° |
| 2026-04-21 23:46 | 28.09485 | -81.89406 | 1199 ft | 116 kts | 245° |
| 2026-04-21 23:47 | 28.09223 | -81.90212 | 1195 ft | 102 kts | 243° |
| 2026-04-21 23:47 | 28.08977 | -81.90946 | 1172 ft | 99 kts | 243° |
| 2026-04-21 23:47 | 28.08725 | -81.91653 | 1184 ft | 96 kts | 242° |
| 2026-04-21 23:47 | 28.08496 | -81.92386 | 1182 ft | 100 kts | 245° |
| 2026-04-21 23:48 | 28.08260 | -81.93128 | 1186 ft | 100 kts | 244° |
| 2026-04-21 23:48 | 28.08035 | -81.93849 | 1187 ft | 96 kts | 244° |
| 2026-04-21 23:48 | 28.07780 | -81.94579 | 1174 ft | 104 kts | 244° |
| 2026-04-21 23:48 | 28.07488 | -81.95388 | 1137 ft | 116 kts | 244° |
| 2026-04-21 23:49 | 28.07210 | -81.96248 | 1144 ft | 117 kts | 252° |
| 2026-04-21 23:49 | 28.07058 | -81.97163 | 1140 ft | 122 kts | 254° |
| 2026-04-21 23:49 | 28.06896 | -81.98115 | 1150 ft | 124 kts | 254° |
| 2026-04-21 23:49 | 28.06707 | -81.99078 | 1143 ft | 125 kts | 256° |
| 2026-04-21 23:50 | 28.06509 | -82.00007 | 1138 ft | 118 kts | 255° |
| 2026-04-21 23:50 | 28.06117 | -82.00776 | 1126 ft | 114 kts | 220° |
| 2026-04-21 23:50 | 28.05575 | -82.01427 | 1044 ft | 116 kts | 219° |
| 2026-04-21 23:50 | 28.05059 | -82.02092 | 1075 ft | 108 kts | 224° |
| 2026-04-21 23:51 | 28.04572 | -82.02741 | 1058 ft | 109 kts | 224° |
| 2026-04-21 23:51 | 28.04110 | -82.03394 | 1067 ft | 109 kts | 224° |
| 2026-04-21 23:51 | 28.03643 | -82.04079 | 1077 ft | 107 kts | 228° |
| 2026-04-21 23:51 | 28.03417 | -82.04857 | 1113 ft | 114 kts | 275° |
| 2026-04-21 23:52 | 28.03518 | -82.05766 | 1122 ft | 119 kts | 277° |
| 2026-04-21 23:52 | 28.03570 | -82.06712 | 1164 ft | 121 kts | 275° |
| 2026-04-21 23:52 | 28.03619 | -82.07665 | 1223 ft | 124 kts | 273° |
| 2026-04-21 23:52 | 28.03666 | -82.08628 | 1237 ft | 125 kts | 272° |
| 2026-04-21 23:53 | 28.03636 | -82.09603 | 1194 ft | 125 kts | 255° |
| 2026-04-21 23:53 | 28.03295 | -82.10474 | 1214 ft | 117 kts | 269° |
| 2026-04-21 23:53 | 28.03698 | -82.10992 | 1281 ft | 85 kts | 14° |
| 2026-04-21 23:53 | 28.04033 | -82.10581 | 1221 ft | 79 kts | 75° |
| 2026-04-21 23:54 | 28.04130 | -82.09945 | 1145 ft | 85 kts | 84° |
| 2026-04-21 23:54 | 28.04218 | -82.09288 | 1154 ft | 84 kts | 59° |
| 2026-04-21 23:54 | 28.04778 | -82.09380 | 1256 ft | 118 kts | 296° |
| 2026-04-21 23:54 | 28.04549 | -82.10231 | 1300 ft | 112 kts | 211° |
| 2026-04-21 23:55 | 28.03914 | -82.10193 | 1261 ft | 83 kts | 117° |
| 2026-04-21 23:55 | 28.04100 | -82.09711 | 1220 ft | 89 kts | 27° |
| 2026-04-21 23:55 | 28.04643 | -82.09410 | 1274 ft | 84 kts | 42° |
| 2026-04-21 23:55 | 28.05190 | -82.09194 | 1438 ft | 83 kts | 26° |
| 2026-04-21 23:56 | 28.05596 | -82.08841 | 1513 ft | 71 kts | 81° |
| 2026-04-21 23:56 | 28.05770 | -82.08296 | 1523 ft | 80 kts | 62° |
| 2026-04-21 23:56 | 28.06166 | -82.07787 | 1369 ft | 98 kts | 51° |
| 2026-04-21 23:56 | 28.06698 | -82.07350 | 1376 ft | 91 kts | 41° |
| 2026-04-21 23:57 | 28.07200 | -82.06984 | 1284 ft | 76 kts | 49° |
| 2026-04-21 23:57 | 28.07586 | -82.06619 | 1221 ft | 77 kts | 50° |
| 2026-04-21 23:57 | 28.08001 | -82.06190 | 1228 ft | 85 kts | 51° |
| 2026-04-21 23:57 | 28.08454 | -82.05730 | 1225 ft | 87 kts | 50° |
| 2026-04-21 23:58 | 28.08902 | -82.05246 | 1224 ft | 91 kts | 50° |
| 2026-04-21 23:58 | 28.09342 | -82.04737 | 1230 ft | 90 kts | 50° |
| 2026-04-21 23:58 | 28.09791 | -82.04220 | 1230 ft | 94 kts | 51° |
| 2026-04-21 23:58 | 28.10269 | -82.03730 | 1227 ft | 91 kts | 51° |
| 2026-04-21 23:59 | 28.10740 | -82.03266 | 1226 ft | 88 kts | 50° |
| 2026-04-21 23:59 | 28.11192 | -82.02779 | 1229 ft | 91 kts | 50° |
| 2026-04-21 23:59 | 28.11644 | -82.02256 | 1228 ft | 94 kts | 50° |
| 2026-04-21 23:59 | 28.12105 | -82.01744 | 1232 ft | 92 kts | 50° |
| 2026-04-22 00:00 | 28.12612 | -82.01272 | 1228 ft | 96 kts | 47° |
| 2026-04-22 00:00 | 28.13137 | -82.00788 | 1233 ft | 98 kts | 46° |
| 2026-04-22 00:00 | 28.13663 | -82.00279 | 1234 ft | 99 kts | 47° |
| 2026-04-22 00:00 | 28.14188 | -81.99793 | 1233 ft | 98 kts | 40° |
| 2026-04-22 00:01 | 28.14777 | -81.99376 | 1231 ft | 100 kts | 41° |
| 2026-04-22 00:01 | 28.15381 | -81.99005 | 1236 ft | 102 kts | 33° |
| 2026-04-22 00:01 | 28.15985 | -81.98709 | 1239 ft | 99 kts | 33° |
| 2026-04-22 00:01 | 28.16602 | -81.98391 | 1239 ft | 97 kts | 33° |
| 2026-04-22 00:02 | 28.17218 | -81.98080 | 1235 ft | 96 kts | 33° |
| 2026-04-22 00:02 | 28.17842 | -81.97769 | 1237 ft | 99 kts | 33° |
| 2026-04-22 00:02 | 28.18478 | -81.97455 | 1241 ft | 100 kts | 32° |
| 2026-04-22 00:02 | 28.19107 | -81.97128 | 1240 ft | 103 kts | 33° |
| 2026-04-22 00:03 | 28.19755 | -81.96792 | 1231 ft | 100 kts | 32° |
| 2026-04-22 00:03 | 28.20378 | -81.96457 | 1258 ft | 98 kts | 32° |
| 2026-04-22 00:03 | 28.21001 | -81.96142 | 1289 ft | 99 kts | 33° |
| 2026-04-22 00:03 | 28.21649 | -81.95794 | 1227 ft | 99 kts | 31° |
| 2026-04-22 00:04 | 28.22266 | -81.95456 | 1216 ft | 98 kts | 32° |
| 2026-04-22 00:04 | 28.22847 | -81.95123 | 1225 ft | 92 kts | 32° |
| 2026-04-22 00:04 | 28.23389 | -81.94827 | 1226 ft | 85 kts | 32° |
| 2026-04-22 00:04 | 28.23917 | -81.94540 | 1234 ft | 84 kts | 35° |
| 2026-04-22 00:05 | 28.24433 | -81.94269 | 1233 ft | 82 kts | 33° |
| 2026-04-22 00:05 | 28.24938 | -81.94000 | 1228 ft | 77 kts | 38° |
| 2026-04-22 00:05 | 28.25137 | -81.93549 | 1230 ft | 64 kts | 83° |
| 2026-04-22 00:05 | 28.25146 | -81.93024 | 1230 ft | 70 kts | 91° |
| 2026-04-22 00:06 | 28.25080 | -81.92402 | 1238 ft | 89 kts | 93° |
| 2026-04-22 00:06 | 28.24784 | -81.91765 | 1244 ft | 95 kts | 117° |
| 2026-04-22 00:06 | 28.24411 | -81.91190 | 1245 ft | 92 kts | 116° |
| 2026-04-22 00:06 | 28.24001 | -81.90608 | 1226 ft | 91 kts | 118° |
| 2026-04-22 00:07 | 28.23629 | -81.90056 | 1243 ft | 85 kts | 117° |
| 2026-04-22 00:07 | 28.23257 | -81.89505 | 1259 ft | 88 kts | 118° |
| 2026-04-22 00:07 | 28.22876 | -81.88946 | 1228 ft | 86 kts | 119° |
| 2026-04-22 00:07 | 28.22537 | -81.88448 | 1244 ft | 78 kts | 118° |
| 2026-04-22 00:08 | 28.22198 | -81.87951 | 1251 ft | 81 kts | 119° |
| 2026-04-22 00:08 | 28.21851 | -81.87441 | 1232 ft | 78 kts | 118° |
| 2026-04-22 00:08 | 28.21533 | -81.86991 | 1232 ft | 72 kts | 120° |
| 2026-04-22 00:08 | 28.21215 | -81.86549 | 1238 ft | 77 kts | 120° |
| 2026-04-22 00:09 | 28.20870 | -81.86042 | 1248 ft | 80 kts | 118° |
| 2026-04-22 00:09 | 28.20528 | -81.85533 | 1247 ft | 84 kts | 119° |
| 2026-04-22 00:09 | 28.20185 | -81.85025 | 1239 ft | 79 kts | 119° |
| 2026-04-22 00:09 | 28.19841 | -81.84506 | 1236 ft | 83 kts | 119° |
| 2026-04-22 00:10 | 28.19509 | -81.84005 | 1241 ft | 75 kts | 119° |
| 2026-04-22 00:10 | 28.19193 | -81.83537 | 1246 ft | 77 kts | 122° |
| 2026-04-22 00:10 | 28.18813 | -81.83034 | 1261 ft | 89 kts | 123° |
| 2026-04-22 00:10 | 28.18402 | -81.82489 | 1258 ft | 93 kts | 129° |
| 2026-04-22 00:11 | 28.17953 | -81.81967 | 1254 ft | 93 kts | 128° |
| 2026-04-22 00:11 | 28.17501 | -81.81446 | 1249 ft | 92 kts | 128° |
| 2026-04-22 00:11 | 28.16929 | -81.81101 | 1251 ft | 93 kts | 148° |
| 2026-04-22 00:11 | 28.16277 | -81.80923 | 1243 ft | 100 kts | 165° |
| 2026-04-22 00:12 | 28.15572 | -81.80963 | 1246 ft | 109 kts | 185° |
| 2026-04-22 00:12 | 28.14851 | -81.81327 | 1240 ft | 115 kts | 207° |
| 2026-04-22 00:12 | 28.14209 | -81.81832 | 1254 ft | 111 kts | 208° |
| 2026-04-22 00:12 | 28.13568 | -81.82341 | 1251 ft | 114 kts | 207° |
| 2026-04-22 00:13 | 28.12919 | -81.82882 | 1250 ft | 117 kts | 208° |
| 2026-04-22 00:13 | 28.12256 | -81.83433 | 1259 ft | 118 kts | 210° |
| 2026-04-22 00:13 | 28.11597 | -81.83970 | 1250 ft | 115 kts | 208° |
| 2026-04-22 00:13 | 28.11013 | -81.84561 | 1243 ft | 113 kts | 226° |
| 2026-04-22 00:14 | 28.10632 | -81.85329 | 1242 ft | 114 kts | 247° |
| 2026-04-22 00:14 | 28.10454 | -81.86202 | 1244 ft | 113 kts | 255° |
| 2026-04-22 00:14 | 28.10308 | -81.87066 | 1242 ft | 109 kts | 256° |
| 2026-04-22 00:14 | 28.10133 | -81.87891 | 1245 ft | 108 kts | 252° |
| 2026-04-22 00:15 | 28.09874 | -81.88698 | 1250 ft | 113 kts | 244° |
| 2026-04-22 00:15 | 28.09590 | -81.89534 | 1253 ft | 115 kts | 243° |
| 2026-04-22 00:15 | 28.09326 | -81.90407 | 1270 ft | 117 kts | 245° |
| 2026-04-22 00:15 | 28.09053 | -81.91297 | 1224 ft | 114 kts | 245° |
| 2026-04-22 00:16 | 28.08806 | -81.92097 | 1184 ft | 106 kts | 247° |
| 2026-04-22 00:16 | 28.08593 | -81.92898 | 1260 ft | 108 kts | 251° |
| 2026-04-22 00:16 | 28.08499 | -81.93760 | 1312 ft | 115 kts | 271° |
| 2026-04-22 00:16 | 28.08683 | -81.94700 | 1240 ft | 124 kts | 279° |
| 2026-04-22 00:17 | 28.08711 | -81.95641 | 1239 ft | 117 kts | 264° |
| 2026-04-22 00:17 | 28.08605 | -81.96535 | 1234 ft | 113 kts | 252° |
| 2026-04-22 00:17 | 28.08317 | -81.97350 | 1237 ft | 111 kts | 236° |
| 2026-04-22 00:17 | 28.07890 | -81.98083 | 1231 ft | 112 kts | 227° |
| 2026-04-22 00:18 | 28.07456 | -81.98793 | 1233 ft | 107 kts | 227° |
| 2026-04-22 00:18 | 28.07046 | -81.99499 | 1233 ft | 108 kts | 225° |
| 2026-04-22 00:18 | 28.06589 | -82.00203 | 1243 ft | 114 kts | 227° |
| 2026-04-22 00:18 | 28.06063 | -82.00818 | 1229 ft | 104 kts | 193° |
| 2026-04-22 00:19 | 28.05389 | -82.00967 | 1232 ft | 103 kts | 182° |
| 2026-04-22 00:19 | 28.04694 | -82.01137 | 1202 ft | 102 kts | 178° |
| 2026-04-22 00:19 | 28.03990 | -82.01256 | 1173 ft | 104 kts | 175° |
| 2026-04-22 00:19 | 28.03264 | -82.01377 | 1177 ft | 105 kts | 176° |
| 2026-04-22 00:20 | 28.02526 | -82.01492 | 1152 ft | 105 kts | 179° |
| 2026-04-22 00:20 | 28.01844 | -82.01665 | 1161 ft | 100 kts | 179° |
| 2026-04-22 00:20 | 28.01169 | -82.01794 | 1120 ft | 92 kts | 177° |
| 2026-04-22 00:20 | 28.00604 | -82.01903 | 1236 ft | 86 kts | 172° |
| 2026-04-22 00:21 | 27.99980 | -82.02033 | 1160 ft | 110 kts | 208° |
| 2026-04-22 00:21 | 27.99826 | -82.02887 | 1069 ft | 118 kts | 281° |
| 2026-04-22 00:21 | 27.99880 | -82.03795 | 1003 ft | 110 kts | 274° |
| 2026-04-22 00:21 | 27.99647 | -82.04524 | 875 ft | 96 kts | 198° |
| 2026-04-22 00:22 | 27.99120 | -82.04327 | 624 ft | 76 kts | 131° |
| 2026-04-22 00:22 | 27.99030 | -82.03769 | 359 ft | 75 kts | 88° |
| 2026-04-22 00:22 | 27.99038 | -82.03222 | 212 ft | 64 kts | 91° |
| 2026-04-22 00:22 | 27.99040 | -82.02753 | 171 ft | 56 kts | 91° |
| 2026-04-22 00:23 | 27.99038 | -82.02332 | 169 ft | 51 kts | 90° |
| 2026-04-22 00:23 | 27.99041 | -82.01921 | 149 ft | 53 kts | 91° |
| 2026-04-22 00:23 | 27.99036 | -82.01613 | 140 ft | 23 kts | 86° |
| 2026-04-22 00:23 | 27.99039 | -82.01430 | 142 ft | 24 kts | 90° |
| 2026-04-22 00:24 | 27.99040 | -82.01191 | 143 ft | 36 kts | 90° |
| 2026-04-22 00:24 | 27.99041 | -82.00930 | 143 ft | 27 kts | 88° |
| 2026-04-22 00:24 | 27.99032 | -82.00781 | 143 ft | 16 kts | 132° |
| 2026-04-22 00:24 | 27.99003 | -82.00767 | 143 ft | 0 kts | 175° |
| 2026-04-22 00:25 | 27.98882 | -82.00755 | 140 ft | 26 kts | 175° |
| 2026-04-22 00:25 | 27.98785 | -82.00783 | 137 ft | 14 kts | 260° |
| 2026-04-22 00:25 | 27.98769 | -82.00945 | 138 ft | 25 kts | 261° |
| 2026-04-22 00:26 | 27.98749 | -82.01121 | 142 ft | 25 kts | 268° |
| 2026-04-22 00:26 | 27.98731 | -82.01311 | 141 ft | 23 kts | 272° |
| 2026-04-22 00:26 | 27.98733 | -82.01496 | 145 ft | 18 kts | 276° |
| 2026-04-22 00:26 | 27.98686 | -82.01574 | 147 ft | 18 kts | 208° |
| 2026-04-22 00:27 | 27.98609 | -82.01637 | 146 ft | 18 kts | 227° |
| 2026-04-22 00:27 | 27.98512 | -82.01666 | 146 ft | 17 kts | 143° |
| 2026-04-22 00:28 | 27.98463 | -82.01614 | 144 ft | 0 kts | 132° |